This is the latest recevied weather packets stored in our database for station/object N0YWB. If no packets are shown the sender has not sent any weather packets the latest 10 day(s).
| Time | Temp. | Humidity | Pressure | Rain* | Wind** | Luminosity | Snow |
|---|---|---|---|---|---|---|---|
| 1777445170 | 9.44° C | 79% | 1018.8 hPa | 0 mm | - | - | - |
| 1777440924 | 10° C | 77% | 1018.4 hPa | 0 mm | - | - | - |
| 1777438523 | 10.56° C | 77% | 1018.1 hPa | 0 mm | - | - | - |
| 1777431948 | 12.22° C | 67% | 1017.7 hPa | 0 mm | - | - | - |
| 1777431331 | 12.22° C | 66% | 1017.8 hPa | 0 mm | - | - | - |
| 1777423524 | 13.89° C | 63% | 1017.6 hPa | 0 mm | - | - | - |
| 1777422926 | 13.89° C | 67% | 1017.8 hPa | 0 mm | - | - | - |
| 1777421733 | 13.89° C | 68% | 1017.7 hPa | 0 mm | - | - | - |
| 1777420519 | 13.89° C | 69% | 1017.9 hPa | 0 mm | - | - | - |
| 1777419324 | 14.44° C | 65% | 1017.7 hPa | 0 mm | - | - | - |
| 1777409126 | 15.56° C | 61% | 1017.6 hPa | 0 mm | - | - | - |
| 1777406724 | 15.56° C | 61% | 1017.4 hPa | 0 mm | - | - | - |
| 1777404317 | 15.56° C | 63% | 1018.4 hPa | 0 mm | - | - | - |
| 1777401330 | 15° C | 62% | 1018.8 hPa | 0 mm | - | - | - |
| 1777398922 | 15° C | 62% | 1019.3 hPa | 0 mm | - | - | - |
| 1777398325 | 15.56° C | 61% | 1019.3 hPa | 0 mm | - | - | - |
| 1777397138 | 15.56° C | 63% | 1019.3 hPa | 0 mm | - | - | - |
| 1777395917 | 15° C | 66% | 1019.3 hPa | 0 mm | - | - | - |
| 1777392950 | 13.89° C | 72% | 1019.5 hPa | 0 mm | - | - | - |
| 1777388127 | 11.11° C | 83% | 1017.7 hPa | 0 mm | - | - | - |
| 1777385128 | 10° C | 86% | 1017.5 hPa | 0 mm | - | - | - |
| 1777383915 | 9.44° C | 89% | 1017.7 hPa | 0 mm | - | - | - |
| 1777375516 | 8.33° C | 93% | 1015.8 hPa | 0 mm | - | - | - |
* Rain latest hour (hover to see other rain measurements)
** Current wind speed in m/s (hover to see current wind gust speed)